Home   Weather   Germany   Werne   Past weeks
Flag for Germany

Past Weather in Werne, North Rhine-Westphalia, Germany — Yesterday and Last 2 Weeks

Currently: 39 °F. Sunny. (Weather station: Dortmund / Wickede, Germany). See more current weather

Past Weather in Werne — Graph

°F

Werne Temperature Yesterday

Maximum temperature yesterday: 45 °F (at 2:20 pm)
Minimum temperature yesterday: 27 °F (at 3:50 am)
Average temperature yesterday: 34 °F

High & Low Weather Summary for the Past Weeks

 TemperatureHumidityPressure
High48 °F (Feb 3, 9:50 am)100% (Jan 26, 3:20 am)30.74 "Hg (Jan 26, 3:20 am)
Low25 °F (Jan 28, 8:50 pm)31% (Feb 8, 3:50 pm)29.92 "Hg (Jan 30, 6:50 am)
Average37 °F83%30.36 "Hg
* Reported Jan 25 1:50 pm — Feb 9 1:20 pm, Werne. Weather by CustomWeather, © 2023

Note: Actual official high and low records may vary slightly from our data, if they occured in-between our weather recording intervals... More about our weather records

Werne Weather History for the Previous 24 Hours

Scroll right to see more
 ConditionsComfort  
Time TempWeatherWind HumidityBarometerVisibility
1:20 pm
Thu, Feb 9
39 °FPassing clouds.10 mph48%30.45 "HgN/A
12:50 pm37 °FSunny.10 mph52%30.48 "Hg10 mi
12:20 pm37 °FSunny.10 mph52%30.48 "Hg10 mi
11:50 am37 °FSunny.10 mph52%30.48 "Hg10 mi
11:20 am36 °FSunny.9 mph56%30.48 "Hg10 mi
10:50 am36 °FSunny.10 mph52%30.48 "Hg10 mi
10:20 am34 °FSunny.12 mph56%30.48 "Hg10 mi
9:50 am32 °FSunny.12 mph60%30.45 "Hg10 mi
9:20 am32 °FSunny.13 mph60%30.48 "Hg10 mi
8:50 am30 °FSunny.12 mph64%30.45 "Hg10 mi
8:20 am30 °FSunny.9 mph64%30.45 "Hg10 mi
7:20 am30 °FClear.14 mph64%30.45 "Hg10 mi
6:50 am30 °FClear.13 mph59%30.45 "Hg10 mi
6:20 am30 °FClear.14 mph59%30.45 "Hg10 mi
5:50 am30 °FClear.14 mph64%30.45 "Hg10 mi
5:20 am30 °FClear.14 mph64%30.45 "Hg10 mi
4:50 am30 °FClear.13 mph64%30.45 "HgN/A
4:20 am30 °FClear.10 mph64%30.45 "HgN/A
3:50 am30 °FClear.8 mph64%30.48 "HgN/A
3:20 am30 °FClear.8 mph64%30.48 "HgN/A
2:50 am28 °FClear.8 mph64%30.48 "HgN/A
2:20 am30 °FClear.7 mph55%30.48 "HgN/A
1:50 am30 °FClear.6 mph59%30.48 "HgN/A
12:20 am32 °FClear.3 mph55%30.51 "HgN/A
11:50 pm
Wed, Feb 8
34 °FClear.2 mph51%30.51 "HgN/A
11:20 pm32 °FClear.2 mph55%30.51 "HgN/A
10:50 pm34 °FClear.3 mph48%30.51 "Hg10 mi
10:20 pm34 °FClear.No wind51%30.51 "Hg10 mi
9:50 pm36 °FClear.5 mph44%30.51 "Hg10 mi
9:20 pm36 °FClear.6 mph44%30.51 "Hg10 mi
8:50 pm36 °FClear.5 mph44%30.51 "Hg10 mi
8:20 pm36 °FClear.8 mph48%30.51 "Hg10 mi
7:50 pm36 °FClear.7 mph52%30.51 "Hg10 mi
7:20 pm36 °FClear.7 mph52%30.51 "Hg10 mi
6:20 pm39 °FClear.5 mph39%30.54 "Hg10 mi
5:50 pm37 °FClear.7 mph45%30.54 "Hg10 mi
5:20 pm39 °FSunny.5 mph42%30.54 "Hg10 mi
4:50 pm41 °FSunny.7 mph39%30.57 "Hg10 mi
4:20 pm43 °FSunny.5 mph36%30.57 "Hg10 mi
3:50 pm43 °FSunny.5 mph31%30.57 "Hg10 mi
3:20 pm45 °FSunny.6 mph34%30.57 "Hg10 mi
2:20 pm45 °FPassing clouds.3 mph34%30.60 "HgN/A
Weather by CustomWeather, © 2023

See weather overview